sensor_id;sensor_type;location;lat;lon;timestamp;pressure;altitude;pressure_sealevel;temperature
68027;BMP180;54819;48.030;14.710;2023-10-09T00:01:51;98312.40;;;13.10
68027;BMP180;54819;48.030;14.710;2023-10-09T00:04:18;98296.20;;;13.10
68027;BMP180;54819;48.030;14.710;2023-10-09T00:06:47;98310.40;;;13.10
68027;BMP180;54819;48.030;14.710;2023-10-09T00:09:14;98310.80;;;13.10
68027;BMP180;54819;48.030;14.710;2023-10-09T00:11:51;98295.60;;;13.04
68027;BMP180;54819;48.030;14.710;2023-10-09T00:14:28;98283.80;;;13.00
68027;BMP180;54819;48.030;14.710;2023-10-09T00:17:05;98271.20;;;13.00
68027;BMP180;54819;48.030;14.710;2023-10-09T00:19:48;98271.00;;;13.02
68027;BMP180;54819;48.030;14.710;2023-10-09T00:22:16;98268.80;;;13.00
68027;BMP180;54819;48.030;14.710;2023-10-09T00:24:54;98263.60;;;13.00
68027;BMP180;54819;48.030;14.710;2023-10-09T00:27:43;98254.40;;;13.00
68027;BMP180;54819;48.030;14.710;2023-10-09T00:30:15;98251.80;;;13.00
68027;BMP180;54819;48.030;14.710;2023-10-09T00:32:48;98249.00;;;13.00
68027;BMP180;54819;48.030;14.710;2023-10-09T00:35:38;98242.40;;;13.00
68027;BMP180;54819;48.030;14.710;2023-10-09T00:38:21;98238.80;;;13.00
68027;BMP180;54819;48.030;14.710;2023-10-09T00:40:49;98238.00;;;13.00
68027;BMP180;54819;48.030;14.710;2023-10-09T00:43:40;98227.40;;;13.00
68027;BMP180;54819;48.030;14.710;2023-10-09T00:46:10;98223.40;;;12.96
68027;BMP180;54819;48.030;14.710;2023-10-09T00:48:57;98211.60;;;12.90
68027;BMP180;54819;48.030;14.710;2023-10-09T00:51:29;98200.00;;;12.90
68027;BMP180;54819;48.030;14.710;2023-10-09T00:54:05;98206.40;;;12.90
68027;BMP180;54819;48.030;14.710;2023-10-09T00:56:42;98209.80;;;12.90
68027;BMP180;54819;48.030;14.710;2023-10-09T00:59:19;98212.40;;;12.80
68027;BMP180;54819;48.030;14.710;2023-10-09T01:01:48;98223.40;;;12.76
68027;BMP180;54819;48.030;14.710;2023-10-09T01:04:31;98212.80;;;12.70
68027;BMP180;54819;48.030;14.710;2023-10-09T01:06:59;98214.60;;;12.60
68027;BMP180;54819;48.030;14.710;2023-10-09T01:09:39;98218.80;;;12.60
68027;BMP180;54819;48.030;14.710;2023-10-09T01:12:10;98223.60;;;12.60
68027;BMP180;54819;48.030;14.710;2023-10-09T01:14:46;98229.20;;;12.60
68027;BMP180;54819;48.030;14.710;2023-10-09T01:17:22;98230.40;;;12.60
68027;BMP180;54819;48.030;14.710;2023-10-09T01:20:22;98226.40;;;12.58
68027;BMP180;54819;48.030;14.710;2023-10-09T01:23:00;98226.60;;;12.54
68027;BMP180;54819;48.030;14.710;2023-10-09T01:25:27;98218.00;;;12.52
68027;BMP180;54819;48.030;14.710;2023-10-09T01:28:08;98217.80;;;12.50
68027;BMP180;54819;48.030;14.710;2023-10-09T01:30:34;98209.00;;;12.50
68027;BMP180;54819;48.030;14.710;2023-10-09T01:33:08;98202.40;;;12.46
68027;BMP180;54819;48.030;14.710;2023-10-09T01:35:49;98202.00;;;12.50
68027;BMP180;54819;48.030;14.710;2023-10-09T01:38:17;98195.20;;;12.44
68027;BMP180;54819;48.030;14.710;2023-10-09T01:40:44;98189.00;;;12.40
68027;BMP180;54819;48.030;14.710;2023-10-09T01:43:11;98187.00;;;12.40
68027;BMP180;54819;48.030;14.710;2023-10-09T01:45:38;98181.20;;;12.40
68027;BMP180;54819;48.030;14.710;2023-10-09T01:48:14;98166.60;;;12.44
68027;BMP180;54819;48.030;14.710;2023-10-09T01:50:41;98176.20;;;12.50
68027;BMP180;54819;48.030;14.710;2023-10-09T01:53:09;98169.60;;;12.50
68027;BMP180;54819;48.030;14.710;2023-10-09T01:55:35;98164.00;;;12.50
68027;BMP180;54819;48.030;14.710;2023-10-09T01:58:07;98163.20;;;12.60
68027;BMP180;54819;48.030;14.710;2023-10-09T02:00:50;98159.80;;;12.60
68027;BMP180;54819;48.030;14.710;2023-10-09T02:03:22;98153.40;;;12.66
68027;BMP180;54819;48.030;14.710;2023-10-09T02:05:54;98153.40;;;12.70
68027;BMP180;54819;48.030;14.710;2023-10-09T02:08:26;98156.20;;;12.70
68027;BMP180;54819;48.030;14.710;2023-10-09T02:10:56;98158.40;;;12.70
68027;BMP180;54819;48.030;14.710;2023-10-09T02:13:23;98152.60;;;12.70
68027;BMP180;54819;48.030;14.710;2023-10-09T02:15:56;98150.20;;;12.70
68027;BMP180;54819;48.030;14.710;2023-10-09T02:18:40;98148.00;;;12.70
68027;BMP180;54819;48.030;14.710;2023-10-09T02:21:20;98144.40;;;12.70
68027;BMP180;54819;48.030;14.710;2023-10-09T02:24:16;98141.80;;;12.60
68027;BMP180;54819;48.030;14.710;2023-10-09T02:27:02;98138.60;;;12.60
68027;BMP180;54819;48.030;14.710;2023-10-09T02:29:35;98135.40;;;12.60
68027;BMP180;54819;48.030;14.710;2023-10-09T02:32:05;98128.60;;;12.50
68027;BMP180;54819;48.030;14.710;2023-10-09T02:34:40;98126.20;;;12.50
68027;BMP180;54819;48.030;14.710;2023-10-09T02:37:08;98123.20;;;12.50
68027;BMP180;54819;48.030;14.710;2023-10-09T02:39:39;98117.60;;;12.50
68027;BMP180;54819;48.030;14.710;2023-10-09T02:42:14;98110.40;;;12.40
68027;BMP180;54819;48.030;14.710;2023-10-09T02:44:42;98111.40;;;12.40
68027;BMP180;54819;48.030;14.710;2023-10-09T02:47:19;98108.60;;;12.30
68027;BMP180;54819;48.030;14.710;2023-10-09T02:49:56;98109.20;;;12.28
68027;BMP180;54819;48.030;14.710;2023-10-09T02:52:34;98106.60;;;12.20
68027;BMP180;54819;48.030;14.710;2023-10-09T02:55:08;98103.80;;;12.12
68027;BMP180;54819;48.030;14.710;2023-10-09T02:57:49;98104.40;;;12.10
68027;BMP180;54819;48.030;14.710;2023-10-09T03:00:22;98099.00;;;12.00
68027;BMP180;54819;48.030;14.710;2023-10-09T03:02:56;98098.00;;;12.00
68027;BMP180;54819;48.030;14.710;2023-10-09T03:05:25;98096.80;;;12.00
68027;BMP180;54819;48.030;14.710;2023-10-09T03:07:55;98097.60;;;12.00
68027;BMP180;54819;48.030;14.710;2023-10-09T03:10:23;98092.60;;;12.00
68027;BMP180;54819;48.030;14.710;2023-10-09T03:12:52;98077.00;;;12.00
68027;BMP180;54819;48.030;14.710;2023-10-09T03:15:20;98075.80;;;12.00
68027;BMP180;54819;48.030;14.710;2023-10-09T03:17:47;98077.60;;;12.00
68027;BMP180;54819;48.030;14.710;2023-10-09T03:20:15;98073.40;;;12.00
68027;BMP180;54819;48.030;14.710;2023-10-09T03:22:45;98073.40;;;12.00
68027;BMP180;54819;48.030;14.710;2023-10-09T03:25:14;98074.60;;;12.00
68027;BMP180;54819;48.030;14.710;2023-10-09T03:27:44;98075.40;;;12.00
68027;BMP180;54819;48.030;14.710;2023-10-09T03:30:14;98071.60;;;12.00
68027;BMP180;54819;48.030;14.710;2023-10-09T03:32:51;98065.40;;;12.00
68027;BMP180;54819;48.030;14.710;2023-10-09T03:35:20;98059.60;;;12.00
68027;BMP180;54819;48.030;14.710;2023-10-09T03:38:01;98055.80;;;12.00
68027;BMP180;54819;48.030;14.710;2023-10-09T03:40:36;98045.20;;;12.00
68027;BMP180;54819;48.030;14.710;2023-10-09T03:43:05;98045.00;;;12.00
68027;BMP180;54819;48.030;14.710;2023-10-09T03:45:32;98049.40;;;11.98
68027;BMP180;54819;48.030;14.710;2023-10-09T03:48:02;98042.60;;;11.90
68027;BMP180;54819;48.030;14.710;2023-10-09T03:50:38;98040.60;;;11.92
68027;BMP180;54819;48.030;14.710;2023-10-09T03:53:05;98036.20;;;11.94
68027;BMP180;54819;48.030;14.710;2023-10-09T03:55:38;98035.00;;;12.00
68027;BMP180;54819;48.030;14.710;2023-10-09T03:58:06;98035.00;;;12.00
68027;BMP180;54819;48.030;14.710;2023-10-09T04:00:33;98029.40;;;12.00
68027;BMP180;54819;48.030;14.710;2023-10-09T04:03:12;98027.20;;;12.00
68027;BMP180;54819;48.030;14.710;2023-10-09T04:05:42;98028.40;;;12.00
68027;BMP180;54819;48.030;14.710;2023-10-09T04:08:12;98026.00;;;11.96
68027;BMP180;54819;48.030;14.710;2023-10-09T04:10:40;98023.20;;;11.90
68027;BMP180;54819;48.030;14.710;2023-10-09T04:13:11;98019.60;;;11.90
68027;BMP180;54819;48.030;14.710;2023-10-09T04:15:43;98011.40;;;11.90
68027;BMP180;54819;48.030;14.710;2023-10-09T04:18:10;98015.20;;;11.90
68027;BMP180;54819;48.030;14.710;2023-10-09T04:20:42;98012.00;;;11.88
68027;BMP180;54819;48.030;14.710;2023-10-09T04:23:37;97998.40;;;11.82
68027;BMP180;54819;48.030;14.710;2023-10-09T04:26:23;98000.60;;;11.80
68027;BMP180;54819;48.030;14.710;2023-10-09T04:28:55;98000.00;;;11.80
68027;BMP180;54819;48.030;14.710;2023-10-09T04:31:22;98004.20;;;11.80
68027;BMP180;54819;48.030;14.710;2023-10-09T04:33:58;98016.60;;;11.80
68027;BMP180;54819;48.030;14.710;2023-10-09T04:36:49;98012.60;;;11.80
68027;BMP180;54819;48.030;14.710;2023-10-09T04:39:17;98000.00;;;11.80
68027;BMP180;54819;48.030;14.710;2023-10-09T04:41:57;97987.40;;;11.80
68027;BMP180;54819;48.030;14.710;2023-10-09T04:44:43;97987.40;;;11.80
68027;BMP180;54819;48.030;14.710;2023-10-09T04:47:45;97981.00;;;11.86
68027;BMP180;54819;48.030;14.710;2023-10-09T04:50:38;97984.60;;;11.90
68027;BMP180;54819;48.030;14.710;2023-10-09T04:53:33;97978.60;;;11.90
68027;BMP180;54819;48.030;14.710;2023-10-09T04:56:10;97975.60;;;11.90
68027;BMP180;54819;48.030;14.710;2023-10-09T04:58:42;97972.40;;;11.90
68027;BMP180;54819;48.030;14.710;2023-10-09T05:01:11;97971.80;;;11.90
68027;BMP180;54819;48.030;14.710;2023-10-09T05:03:43;97971.60;;;11.90
68027;BMP180;54819;48.030;14.710;2023-10-09T05:06:11;97970.80;;;11.90
68027;BMP180;54819;48.030;14.710;2023-10-09T05:08:49;97969.40;;;11.90
68027;BMP180;54819;48.030;14.710;2023-10-09T05:11:16;97968.20;;;11.90
68027;BMP180;54819;48.030;14.710;2023-10-09T05:14:01;97969.80;;;12.00
68027;BMP180;54819;48.030;14.710;2023-10-09T05:16:40;97969.80;;;12.00
68027;BMP180;54819;48.030;14.710;2023-10-09T05:19:23;97973.20;;;12.00
68027;BMP180;54819;48.030;14.710;2023-10-09T05:22:16;97973.60;;;12.00
68027;BMP180;54819;48.030;14.710;2023-10-09T05:25:03;97980.40;;;12.08
68027;BMP180;54819;48.030;14.710;2023-10-09T05:27:41;97979.40;;;12.10
68027;BMP180;54819;48.030;14.710;2023-10-09T05:30:17;97975.20;;;12.10
68027;BMP180;54819;48.030;14.710;2023-10-09T05:32:55;97973.40;;;12.10
68027;BMP180;54819;48.030;14.710;2023-10-09T05:35:25;97974.40;;;12.14
68027;BMP180;54819;48.030;14.710;2023-10-09T05:38:08;97969.20;;;12.20
68027;BMP180;54819;48.030;14.710;2023-10-09T05:40:51;97967.80;;;12.20
68027;BMP180;54819;48.030;14.710;2023-10-09T05:43:31;97962.20;;;12.30
68027;BMP180;54819;48.030;14.710;2023-10-09T05:46:16;97963.60;;;12.34
68027;BMP180;54819;48.030;14.710;2023-10-09T05:48:43;97956.40;;;12.40
68027;BMP180;54819;48.030;14.710;2023-10-09T05:51:10;97957.60;;;12.48
68027;BMP180;54819;48.030;14.710;2023-10-09T05:53:39;97960.40;;;12.50
68027;BMP180;54819;48.030;14.710;2023-10-09T05:56:12;97962.00;;;12.60
68027;BMP180;54819;48.030;14.710;2023-10-09T05:58:58;97949.60;;;12.62
68027;BMP180;54819;48.030;14.710;2023-10-09T06:01:30;97944.40;;;12.70
68027;BMP180;54819;48.030;14.710;2023-10-09T06:04:17;97944.00;;;12.84
68027;BMP180;54819;48.030;14.710;2023-10-09T06:06:46;97950.20;;;12.90
68027;BMP180;54819;48.030;14.710;2023-10-09T06:09:23;97952.60;;;13.00
68027;BMP180;54819;48.030;14.710;2023-10-09T06:11:50;97953.40;;;13.10
68027;BMP180;54819;48.030;14.710;2023-10-09T06:14:23;97949.20;;;13.20
68027;BMP180;54819;48.030;14.710;2023-10-09T06:16:58;97938.60;;;13.26
68027;BMP180;54819;48.030;14.710;2023-10-09T06:19:42;97942.00;;;13.30
68027;BMP180;54819;48.030;14.710;2023-10-09T06:22:11;97949.40;;;13.30
68027;BMP180;54819;48.030;14.710;2023-10-09T06:24:39;97948.00;;;13.40
68027;BMP180;54819;48.030;14.710;2023-10-09T06:27:10;97944.60;;;13.40
68027;BMP180;54819;48.030;14.710;2023-10-09T06:29:42;97947.60;;;13.40
68027;BMP180;54819;48.030;14.710;2023-10-09T06:32:11;97940.60;;;13.30
68027;BMP180;54819;48.030;14.710;2023-10-09T06:34:49;97944.60;;;13.30
68027;BMP180;54819;48.030;14.710;2023-10-09T06:37:23;97951.20;;;13.30
68027;BMP180;54819;48.030;14.710;2023-10-09T06:39:54;97949.40;;;13.36
68027;BMP180;54819;48.030;14.710;2023-10-09T06:42:24;97954.20;;;13.40
68027;BMP180;54819;48.030;14.710;2023-10-09T06:47:47;97950.00;;;13.60
68027;BMP180;54819;48.030;14.710;2023-10-09T06:50:23;97948.80;;;13.80
68027;BMP180;54819;48.030;14.710;2023-10-09T06:52:53;97956.00;;;13.92
68027;BMP180;54819;48.030;14.710;2023-10-09T06:55:38;97959.20;;;14.06
68027;BMP180;54819;48.030;14.710;2023-10-09T06:58:31;97954.20;;;14.20
68027;BMP180;54819;48.030;14.710;2023-10-09T07:01:08;97952.40;;;14.30
68027;BMP180;54819;48.030;14.710;2023-10-09T07:03:56;97961.20;;;14.40
68027;BMP180;54819;48.030;14.710;2023-10-09T07:06:42;97961.40;;;14.52
68027;BMP180;54819;48.030;14.710;2023-10-09T07:09:09;97971.20;;;14.66
68027;BMP180;54819;48.030;14.710;2023-10-09T07:16:34;97965.00;;;14.80
68027;BMP180;54819;48.030;14.710;2023-10-09T07:19:24;97970.40;;;14.90
68027;BMP180;54819;48.030;14.710;2023-10-09T07:22:02;97974.20;;;14.90
68027;BMP180;54819;48.030;14.710;2023-10-09T07:24:42;97974.60;;;14.90
68027;BMP180;54819;48.030;14.710;2023-10-09T07:27:19;97965.40;;;15.00
68027;BMP180;54819;48.030;14.710;2023-10-09T07:30:07;97971.40;;;15.10
68027;BMP180;54819;48.030;14.710;2023-10-09T07:33:02;97971.80;;;15.26
68027;BMP180;54819;48.030;14.710;2023-10-09T07:35:40;97972.20;;;15.40
68027;BMP180;54819;48.030;14.710;2023-10-09T07:38:14;97967.00;;;15.42
68027;BMP180;54819;48.030;14.710;2023-10-09T07:40:47;97967.20;;;15.50
68027;BMP180;54819;48.030;14.710;2023-10-09T07:43:42;97973.60;;;15.60
68027;BMP180;54819;48.030;14.710;2023-10-09T07:46:11;97977.80;;;15.70
68027;BMP180;54819;48.030;14.710;2023-10-09T07:49:04;97977.40;;;15.80
68027;BMP180;54819;48.030;14.710;2023-10-09T07:51:40;97969.00;;;16.00
68027;BMP180;54819;48.030;14.710;2023-10-09T07:54:11;97967.40;;;16.12
68027;BMP180;54819;48.030;14.710;2023-10-09T07:56:42;97967.40;;;16.20
68027;BMP180;54819;48.030;14.710;2023-10-09T07:59:14;97969.40;;;16.20
68027;BMP180;54819;48.030;14.710;2023-10-09T08:01:49;97974.80;;;16.30
68027;BMP180;54819;48.030;14.710;2023-10-09T08:04:20;97975.00;;;16.40
68027;BMP180;54819;48.030;14.710;2023-10-09T08:07:05;97977.80;;;16.40
68027;BMP180;54819;48.030;14.710;2023-10-09T08:09:55;97984.40;;;16.50
68027;BMP180;54819;48.030;14.710;2023-10-09T08:12:41;97993.80;;;16.56
68027;BMP180;54819;48.030;14.710;2023-10-09T08:15:11;97997.60;;;16.50
68027;BMP180;54819;48.030;14.710;2023-10-09T08:18:04;97995.00;;;16.50
68027;BMP180;54819;48.030;14.710;2023-10-09T08:20:37;97985.40;;;16.50
68027;BMP180;54819;48.030;14.710;2023-10-09T08:23:23;97978.40;;;16.50
68027;BMP180;54819;48.030;14.710;2023-10-09T08:26:03;97973.60;;;16.50
68027;BMP180;54819;48.030;14.710;2023-10-09T08:28:40;97959.20;;;16.50
68027;BMP180;54819;48.030;14.710;2023-10-09T08:31:14;97946.40;;;16.60
68027;BMP180;54819;48.030;14.710;2023-10-09T08:34:00;97942.80;;;16.60
68027;BMP180;54819;48.030;14.710;2023-10-09T08:36:30;97939.80;;;16.70
68027;BMP180;54819;48.030;14.710;2023-10-09T08:39:04;97938.80;;;16.80
68027;BMP180;54819;48.030;14.710;2023-10-09T08:41:49;97938.20;;;16.90
68027;BMP180;54819;48.030;14.710;2023-10-09T08:44:20;97947.00;;;17.00
68027;BMP180;54819;48.030;14.710;2023-10-09T08:46:50;97956.60;;;17.10
68027;BMP180;54819;48.030;14.710;2023-10-09T08:49:17;97968.80;;;17.20
68027;BMP180;54819;48.030;14.710;2023-10-09T08:51:45;97981.00;;;17.28
68027;BMP180;54819;48.030;14.710;2023-10-09T08:54:12;97989.40;;;17.30
68027;BMP180;54819;48.030;14.710;2023-10-09T08:56:42;97988.00;;;17.40
68027;BMP180;54819;48.030;14.710;2023-10-09T08:59:19;97991.00;;;17.40
68027;BMP180;54819;48.030;14.710;2023-10-09T09:01:47;97988.20;;;17.50
68027;BMP180;54819;48.030;14.710;2023-10-09T09:04:34;97986.40;;;17.50
68027;BMP180;54819;48.030;14.710;2023-10-09T09:07:04;97985.80;;;17.60
68027;BMP180;54819;48.030;14.710;2023-10-09T09:09:31;97987.40;;;17.70
68027;BMP180;54819;48.030;14.710;2023-10-09T09:12:00;97983.80;;;17.74
68027;BMP180;54819;48.030;14.710;2023-10-09T09:14:38;97983.20;;;17.80
68027;BMP180;54819;48.030;14.710;2023-10-09T09:17:08;97984.40;;;17.90
68027;BMP180;54819;48.030;14.710;2023-10-09T09:19:38;97983.60;;;18.08
68027;BMP180;54819;48.030;14.710;2023-10-09T09:22:05;97987.80;;;18.20
68027;BMP180;54819;48.030;14.710;2023-10-09T09:24:40;97985.60;;;18.28
68027;BMP180;54819;48.030;14.710;2023-10-09T09:27:46;97989.40;;;18.40
68027;BMP180;54819;48.030;14.710;2023-10-09T09:30:26;97991.40;;;18.50
68027;BMP180;54819;48.030;14.710;2023-10-09T09:33:23;97991.00;;;18.60
68027;BMP180;54819;48.030;14.710;2023-10-09T09:36:07;97998.40;;;18.70
68027;BMP180;54819;48.030;14.710;2023-10-09T09:38:35;98000.80;;;18.70
68027;BMP180;54819;48.030;14.710;2023-10-09T09:41:18;98000.40;;;18.70
68027;BMP180;54819;48.030;14.710;2023-10-09T09:43:56;97998.80;;;18.80
68027;BMP180;54819;48.030;14.710;2023-10-09T09:46:23;97994.60;;;18.80
68027;BMP180;54819;48.030;14.710;2023-10-09T09:49:02;97991.00;;;18.80
68027;BMP180;54819;48.030;14.710;2023-10-09T09:51:32;97995.40;;;18.80
68027;BMP180;54819;48.030;14.710;2023-10-09T09:53:59;97989.20;;;18.80
68027;BMP180;54819;48.030;14.710;2023-10-09T09:56:28;97987.60;;;18.80
68027;BMP180;54819;48.030;14.710;2023-10-09T09:58:57;97990.60;;;18.90
68027;BMP180;54819;48.030;14.710;2023-10-09T10:01:30;97987.40;;;18.94
68027;BMP180;54819;48.030;14.710;2023-10-09T10:04:05;97986.00;;;19.00
68027;BMP180;54819;48.030;14.710;2023-10-09T10:06:39;97983.00;;;19.10
68027;BMP180;54819;48.030;14.710;2023-10-09T10:09:08;97981.40;;;19.30
68027;BMP180;54819;48.030;14.710;2023-10-09T10:14:08;97978.80;;;19.58
68027;BMP180;54819;48.030;14.710;2023-10-09T10:17:04;97973.40;;;19.70
68027;BMP180;54819;48.030;14.710;2023-10-09T10:22:41;97980.40;;;19.80
68027;BMP180;54819;48.030;14.710;2023-10-09T10:28:22;97993.00;;;19.80
68027;BMP180;54819;48.030;14.710;2023-10-09T10:30:55;97997.00;;;20.00
68027;BMP180;54819;48.030;14.710;2023-10-09T10:33:24;98003.00;;;20.00
68027;BMP180;54819;48.030;14.710;2023-10-09T10:35:53;98001.40;;;20.00
68027;BMP180;54819;48.030;14.710;2023-10-09T10:38:27;97994.80;;;19.94
68027;BMP180;54819;48.030;14.710;2023-10-09T10:41:16;97997.00;;;19.90
68027;BMP180;54819;48.030;14.710;2023-10-09T10:43:45;98000.60;;;19.94
68027;BMP180;54819;48.030;14.710;2023-10-09T10:46:22;98010.60;;;20.10
68027;BMP180;54819;48.030;14.710;2023-10-09T10:49:02;98014.80;;;20.20
68027;BMP180;54819;48.030;14.710;2023-10-09T10:51:49;98012.40;;;20.30
68027;BMP180;54819;48.030;14.710;2023-10-09T10:54:23;98014.20;;;20.40
68027;BMP180;54819;48.030;14.710;2023-10-09T10:57:20;98011.80;;;20.50
68027;BMP180;54819;48.030;14.710;2023-10-09T10:59:58;98010.40;;;20.62
68027;BMP180;54819;48.030;14.710;2023-10-09T11:02:43;98007.80;;;20.70
68027;BMP180;54819;48.030;14.710;2023-10-09T11:05:10;98007.20;;;20.80
68027;BMP180;54819;48.030;14.710;2023-10-09T11:07:57;98013.20;;;20.80
68027;BMP180;54819;48.030;14.710;2023-10-09T11:10:24;98006.80;;;20.82
68027;BMP180;54819;48.030;14.710;2023-10-09T11:12:55;98004.80;;;21.00
68027;BMP180;54819;48.030;14.710;2023-10-09T11:15:36;98000.40;;;21.20
68027;BMP180;54819;48.030;14.710;2023-10-09T11:18:22;97987.60;;;21.40
68027;BMP180;54819;48.030;14.710;2023-10-09T11:20:56;97978.60;;;21.50
68027;BMP180;54819;48.030;14.710;2023-10-09T11:23:44;97972.60;;;21.80
68027;BMP180;54819;48.030;14.710;2023-10-09T11:26:17;97973.80;;;21.92
68027;BMP180;54819;48.030;14.710;2023-10-09T11:29:11;97963.00;;;22.10
68027;BMP180;54819;48.030;14.710;2023-10-09T11:32:02;97966.80;;;22.30
68027;BMP180;54819;48.030;14.710;2023-10-09T11:34:32;97974.00;;;22.40
68027;BMP180;54819;48.030;14.710;2023-10-09T11:37:14;97959.20;;;22.50
68027;BMP180;54819;48.030;14.710;2023-10-09T11:40:27;97945.60;;;22.70
68027;BMP180;54819;48.030;14.710;2023-10-09T11:43:02;97945.20;;;22.70
68027;BMP180;54819;48.030;14.710;2023-10-09T11:45:30;97943.80;;;22.80
68027;BMP180;54819;48.030;14.710;2023-10-09T11:48:17;97938.40;;;22.90
68027;BMP180;54819;48.030;14.710;2023-10-09T11:50:52;97948.60;;;22.90
68027;BMP180;54819;48.030;14.710;2023-10-09T11:53:28;97945.80;;;22.90
68027;BMP180;54819;48.030;14.710;2023-10-09T11:55:55;97960.00;;;23.00
68027;BMP180;54819;48.030;14.710;2023-10-09T11:58:22;97951.60;;;23.00
68027;BMP180;54819;48.030;14.710;2023-10-09T12:00:53;97942.00;;;23.10
68027;BMP180;54819;48.030;14.710;2023-10-09T12:03:25;97943.60;;;23.12
68027;BMP180;54819;48.030;14.710;2023-10-09T12:06:02;97944.60;;;23.20
68027;BMP180;54819;48.030;14.710;2023-10-09T12:08:33;97949.60;;;23.30
68027;BMP180;54819;48.030;14.710;2023-10-09T12:11:02;97939.80;;;23.44
68027;BMP180;54819;48.030;14.710;2023-10-09T12:13:37;97934.00;;;23.50
68027;BMP180;54819;48.030;14.710;2023-10-09T12:16:09;97935.00;;;23.50
68027;BMP180;54819;48.030;14.710;2023-10-09T12:18:37;97925.20;;;23.50
68027;BMP180;54819;48.030;14.710;2023-10-09T12:21:06;97936.40;;;23.60
68027;BMP180;54819;48.030;14.710;2023-10-09T12:23:33;97930.40;;;23.66
68027;BMP180;54819;48.030;14.710;2023-10-09T12:26:04;97928.40;;;23.60
68027;BMP180;54819;48.030;14.710;2023-10-09T12:28:31;97939.00;;;23.60
68027;BMP180;54819;48.030;14.710;2023-10-09T12:31:01;97942.60;;;23.62
68027;BMP180;54819;48.030;14.710;2023-10-09T12:33:28;97937.60;;;23.68
68027;BMP180;54819;48.030;14.710;2023-10-09T12:35:57;97932.80;;;23.50
68027;BMP180;54819;48.030;14.710;2023-10-09T12:38:28;97940.20;;;23.48
68027;BMP180;54819;48.030;14.710;2023-10-09T12:41:05;97932.80;;;23.30
68027;BMP180;54819;48.030;14.710;2023-10-09T12:43:47;97927.00;;;23.10
68027;BMP180;54819;48.030;14.710;2023-10-09T12:46:14;97917.40;;;23.10
68027;BMP180;54819;48.030;14.710;2023-10-09T12:48:45;97926.80;;;23.00
68027;BMP180;54819;48.030;14.710;2023-10-09T12:51:13;97938.00;;;22.80
68027;BMP180;54819;48.030;14.710;2023-10-09T12:53:44;97936.60;;;22.70
68027;BMP180;54819;48.030;14.710;2023-10-09T12:56:24;97946.80;;;22.60
68027;BMP180;54819;48.030;14.710;2023-10-09T12:58:59;97928.00;;;22.50
68027;BMP180;54819;48.030;14.710;2023-10-09T13:01:28;97967.80;;;22.40
68027;BMP180;54819;48.030;14.710;2023-10-09T13:03:59;97950.60;;;22.22
68027;BMP180;54819;48.030;14.710;2023-10-09T13:06:28;97929.40;;;22.18
68027;BMP180;54819;48.030;14.710;2023-10-09T13:08:55;97957.00;;;22.10
68027;BMP180;54819;48.030;14.710;2023-10-09T13:11:26;97934.80;;;22.10
68027;BMP180;54819;48.030;14.710;2023-10-09T13:13:53;97886.40;;;22.10
68027;BMP180;54819;48.030;14.710;2023-10-09T13:16:21;97959.00;;;22.08
68027;BMP180;54819;48.030;14.710;2023-10-09T13:18:57;97941.80;;;22.00
68027;BMP180;54819;48.030;14.710;2023-10-09T13:21:32;97942.60;;;22.00
68027;BMP180;54819;48.030;14.710;2023-10-09T13:23:59;97933.40;;;21.98
68027;BMP180;54819;48.030;14.710;2023-10-09T13:26:29;97950.20;;;21.90
68027;BMP180;54819;48.030;14.710;2023-10-09T13:29:03;97922.20;;;21.80
68027;BMP180;54819;48.030;14.710;2023-10-09T13:31:31;97922.20;;;21.80
68027;BMP180;54819;48.030;14.710;2023-10-09T13:34:02;97925.60;;;21.70
68027;BMP180;54819;48.030;14.710;2023-10-09T13:36:30;97941.60;;;21.60
68027;BMP180;54819;48.030;14.710;2023-10-09T13:39:05;97905.60;;;21.60
68027;BMP180;54819;48.030;14.710;2023-10-09T13:42:01;97907.80;;;21.60
68027;BMP180;54819;48.030;14.710;2023-10-09T13:44:31;97960.20;;;21.60
68027;BMP180;54819;48.030;14.710;2023-10-09T13:47:01;97950.40;;;21.60
68027;BMP180;54819;48.030;14.710;2023-10-09T13:49:29;97958.60;;;21.60
68027;BMP180;54819;48.030;14.710;2023-10-09T13:52:00;97959.60;;;21.50
68027;BMP180;54819;48.030;14.710;2023-10-09T13:54:33;97974.00;;;21.44
68027;BMP180;54819;48.030;14.710;2023-10-09T13:57:01;97952.80;;;21.40
68027;BMP180;54819;48.030;14.710;2023-10-09T13:59:32;97969.80;;;21.30
68027;BMP180;54819;48.030;14.710;2023-10-09T14:02:02;97954.20;;;21.20
68027;BMP180;54819;48.030;14.710;2023-10-09T14:04:36;97947.80;;;21.20
68027;BMP180;54819;48.030;14.710;2023-10-09T14:07:03;97925.20;;;21.10
68027;BMP180;54819;48.030;14.710;2023-10-09T14:09:33;97872.60;;;21.10
68027;BMP180;54819;48.030;14.710;2023-10-09T14:12:11;97843.40;;;21.08
68027;BMP180;54819;48.030;14.710;2023-10-09T14:14:44;97833.00;;;21.00
68027;BMP180;54819;48.030;14.710;2023-10-09T14:17:22;97838.80;;;21.00
68027;BMP180;54819;48.030;14.710;2023-10-09T14:19:56;97848.80;;;20.90
68027;BMP180;54819;48.030;14.710;2023-10-09T14:22:43;97860.20;;;20.90
68027;BMP180;54819;48.030;14.710;2023-10-09T14:25:12;97870.20;;;20.90
68027;BMP180;54819;48.030;14.710;2023-10-09T14:27:41;97854.00;;;20.80
68027;BMP180;54819;48.030;14.710;2023-10-09T14:30:08;97848.20;;;20.78
68027;BMP180;54819;48.030;14.710;2023-10-09T14:32:45;97845.20;;;20.70
68027;BMP180;54819;48.030;14.710;2023-10-09T14:35:18;97830.00;;;20.60
68027;BMP180;54819;48.030;14.710;2023-10-09T14:37:48;97841.40;;;20.60
68027;BMP180;54819;48.030;14.710;2023-10-09T14:40:15;97841.80;;;20.50
68027;BMP180;54819;48.030;14.710;2023-10-09T14:42:48;97846.40;;;20.40
68027;BMP180;54819;48.030;14.710;2023-10-09T14:45:22;97852.20;;;20.30
68027;BMP180;54819;48.030;14.710;2023-10-09T14:47:53;97845.60;;;20.30
68027;BMP180;54819;48.030;14.710;2023-10-09T14:50:21;97855.00;;;20.24
68027;BMP180;54819;48.030;14.710;2023-10-09T14:52:50;97857.60;;;20.20
68027;BMP180;54819;48.030;14.710;2023-10-09T14:55:18;97873.40;;;20.10
68027;BMP180;54819;48.030;14.710;2023-10-09T14:57:55;97891.40;;;20.10